CheckWX is a tool to help pilots better visualize weather data.  It is not intended as a substitute for an official pre-flight weather briefing.

11:07:42 UTC

VIDP METAR
Indira Gandhi International Airport
New Delhi, India
Current

38 mins ago

VIDP 141030Z 34005KT 2800 HZ SCT100 33/17 Q1012 BECMG 3000 HZ
Observed
Oct-14 @ 10:30 UTC
Wind
  • 340° at 5 KTS
Visibility
2,800 meters
Flight Rules
IFR
Conditions
Haze
Cloud Levels
  • Scattered at 10,000' AGL
Temperature
33°C / 91°F
Dewpoint
17°C / 63°F
Humidity
38%
Altimeter
29.88" Hg
Pressure
1011.92 hPa
Previous

1 hour ago

VIDP 141000Z 32006KT 2500 HZ FEW100 33/17 Q1012 BECMG 3000 HZ
Observed
Oct-14 @ 10:00 UTC
Wind
  • 320° at 6 KTS
Visibility
2,500 meters
Flight Rules
IFR
Conditions
Haze
Cloud Levels
  • Few at 10,000' AGL
Temperature
33°C / 91°F
Dewpoint
17°C / 63°F
Humidity
38%
Altimeter
29.88" Hg
Pressure
1011.92 hPa
Previous

2 hours ago

VIDP 140930Z 28004KT 2200 FU FEW100 32/17 Q1012 NOSIG
Observed
Oct-14 @ 09:30 UTC
Wind
  • 280° at 4 KTS
Visibility
2,200 meters
Flight Rules
IFR
Conditions
Smoke
Cloud Levels
  • Few at 10,000' AGL
Temperature
32°C / 90°F
Dewpoint
17°C / 63°F
Heat Index
33°C / 91°F
Humidity
41%
Altimeter
29.88" Hg
Pressure
1011.92 hPa